createdAt,value
2023-02-16T00:01:16.610Z,41.60
2023-02-16T00:05:25.748Z,47.00
2023-02-16T00:09:30.954Z,43.60
2023-02-16T00:13:45.420Z,43.20
2023-02-16T00:17:50.657Z,39.90
2023-02-16T00:21:56.786Z,43.60
2023-02-16T00:26:02.058Z,46.20
2023-02-16T00:30:14.888Z,41.70
2023-02-16T00:38:23.783Z,41.00
2023-02-16T00:42:30.631Z,40.80
2023-02-16T00:46:35.967Z,38.10
2023-02-16T00:50:41.220Z,35.20
2023-02-16T00:54:46.464Z,37.00
2023-02-16T00:58:53.813Z,41.90
2023-02-16T01:02:59.687Z,42.10
2023-02-16T01:07:25.070Z,45.10
2023-02-16T01:11:30.441Z,45.00
2023-02-16T01:15:35.970Z,41.20
2023-02-16T01:19:41.428Z,38.50
2023-02-16T01:23:46.641Z,40.30
2023-02-16T01:27:51.911Z,35.20
2023-02-16T01:31:57.188Z,42.40
2023-02-16T01:36:02.444Z,39.90
2023-02-16T01:40:11.636Z,42.70
2023-02-16T01:44:18.456Z,40.20
2023-02-16T01:48:26.517Z,39.60
2023-02-16T01:52:33.573Z,42.20
2023-02-16T01:56:42.902Z,37.10
2023-02-16T02:01:05.857Z,44.20
2023-02-16T02:05:41.561Z,39.20
2023-02-16T02:09:51.060Z,38.70
2023-02-16T02:13:58.155Z,39.90
2023-02-16T02:18:03.492Z,37.10
2023-02-16T02:22:41.218Z,32.10
2023-02-16T02:27:00.715Z,32.90
2023-02-16T02:31:10.695Z,40.10
2023-02-16T02:35:20.219Z,38.30
2023-02-16T02:39:30.708Z,36.60
2023-02-16T02:43:38.984Z,39.20
2023-02-16T02:47:46.315Z,35.50
2023-02-16T02:51:51.975Z,31.30
2023-02-16T02:56:17.462Z,36.60
2023-02-16T03:00:44.164Z,45.30
2023-02-16T03:04:49.732Z,36.70
2023-02-16T03:08:56.957Z,33.50
2023-02-16T03:13:03.067Z,39.90
2023-02-16T03:17:28.497Z,38.60
2023-02-16T03:21:52.348Z,40.00
2023-02-16T03:26:15.544Z,38.80
2023-02-16T03:30:22.640Z,35.80
2023-02-16T03:34:28.875Z,37.20
2023-02-16T03:38:34.330Z,35.70
2023-02-16T03:42:39.570Z,38.10
2023-02-16T03:46:44.816Z,40.80
2023-02-16T03:50:50.102Z,40.10
2023-02-16T03:54:55.357Z,36.30
2023-02-16T03:59:00.623Z,43.70
2023-02-16T04:03:06.221Z,36.20
2023-02-16T04:07:11.447Z,43.40
2023-02-16T04:11:33.939Z,39.30
2023-02-16T04:15:39.163Z,44.50
2023-02-16T04:19:44.375Z,40.20
2023-02-16T04:23:49.602Z,41.00
2023-02-16T04:27:54.915Z,41.40
2023-02-16T04:32:00.280Z,40.10
2023-02-16T04:36:05.941Z,42.80
2023-02-16T04:40:13.814Z,40.60
2023-02-16T04:44:19.348Z,43.30
2023-02-16T04:48:24.579Z,40.20
2023-02-16T04:52:29.823Z,46.60
2023-02-16T04:56:35.091Z,41.30
2023-02-16T05:00:40.355Z,43.30
2023-02-16T05:04:45.635Z,34.90
2023-02-16T05:08:50.868Z,43.00
2023-02-16T05:13:13.483Z,38.00
2023-02-16T05:17:19.350Z,41.80
2023-02-16T05:21:33.567Z,42.60
2023-02-16T05:25:38.795Z,38.10
2023-02-16T05:29:44.061Z,44.10
2023-02-16T05:33:49.416Z,38.80
2023-02-16T05:37:54.720Z,41.60
2023-02-16T05:42:00.204Z,40.10
2023-02-16T05:46:09.676Z,45.20
2023-02-16T05:50:14.949Z,42.90
2023-02-16T05:54:20.215Z,43.50
2023-02-16T05:58:25.465Z,41.10
2023-02-16T06:02:30.788Z,47.60
2023-02-16T06:06:36.141Z,35.00
2023-02-16T06:10:41.350Z,42.40
2023-02-16T06:14:46.680Z,48.80
2023-02-16T06:18:51.923Z,46.20
2023-02-16T06:22:57.192Z,44.20
2023-02-16T06:27:02.391Z,45.30
2023-02-16T06:31:08.233Z,43.20
2023-02-16T06:35:29.918Z,44.50
2023-02-16T06:39:35.173Z,46.20
2023-02-16T06:43:46.985Z,43.00
2023-02-16T06:52:14.755Z,43.90
2023-02-16T06:56:20.076Z,47.00
2023-02-16T07:04:40.962Z,44.60
2023-02-16T07:08:46.489Z,38.80
2023-02-16T07:13:08.704Z,35.70
2023-02-16T07:22:07.689Z,41.50
2023-02-16T07:30:34.902Z,40.30
2023-02-16T07:34:40.274Z,42.20
2023-02-16T07:39:03.604Z,39.90
2023-02-16T07:47:22.905Z,38.20
2023-02-16T07:51:29.055Z,44.20
2023-02-16T07:59:37.861Z,36.20
2023-02-16T08:03:51.520Z,27.60
2023-02-16T08:07:56.837Z,39.40
2023-02-16T08:12:02.085Z,45.30
2023-02-16T08:16:20.141Z,41.10
2023-02-16T08:20:45.164Z,39.60
2023-02-16T08:24:51.435Z,39.40
2023-02-16T08:33:18.880Z,38.80
2023-02-16T08:37:24.902Z,38.70
2023-02-16T08:41:56.608Z,36.80
2023-02-16T08:46:31.003Z,42.70
2023-02-16T08:50:56.787Z,46.00
2023-02-16T08:55:02.176Z,37.60
2023-02-16T08:59:28.004Z,37.20
2023-02-16T09:04:00.665Z,42.90
2023-02-16T09:08:17.536Z,41.90
2023-02-16T09:12:22.886Z,34.40
2023-02-16T09:16:29.287Z,41.40
2023-02-16T09:20:46.910Z,40.30
2023-02-16T09:25:16.306Z,31.30
2023-02-16T09:34:16.214Z,35.40
2023-02-16T09:47:44.340Z,37.50
2023-02-16T09:56:15.448Z,42.30
2023-02-16T10:00:32.417Z,40.50
2023-02-16T10:14:03.310Z,38.20
2023-02-16T10:18:32.329Z,40.60
2023-02-16T10:22:40.673Z,34.30
2023-02-16T10:26:47.541Z,28.70
2023-02-16T10:31:03.228Z,33.00
2023-02-16T10:35:25.378Z,32.90
2023-02-16T10:39:34.874Z,35.30
2023-02-16T10:43:51.789Z,32.80
2023-02-16T10:47:57.034Z,31.90
2023-02-16T10:52:30.802Z,30.70
2023-02-16T10:56:50.448Z,32.40
2023-02-16T11:00:59.181Z,31.70
2023-02-16T11:05:29.131Z,33.40
2023-02-16T11:09:44.079Z,33.00
2023-02-16T11:13:50.348Z,36.70
2023-02-16T11:18:12.904Z,30.60
2023-02-16T11:22:43.291Z,31.20
2023-02-16T11:31:15.200Z,31.60
2023-02-16T11:35:43.709Z,33.40
2023-02-16T11:40:18.802Z,30.70
2023-02-16T11:44:32.387Z,31.00
2023-02-16T11:52:52.220Z,28.10
2023-02-16T11:57:04.537Z,31.30
2023-02-16T12:01:22.551Z,30.40
2023-02-16T12:15:08.977Z,31.40
2023-02-16T12:19:36.235Z,31.70
2023-02-16T12:28:01.766Z,29.10
2023-02-16T12:32:34.607Z,25.70
2023-02-16T12:37:04.618Z,31.60
2023-02-16T12:41:13.596Z,29.10
2023-02-16T12:45:20.694Z,28.70
2023-02-16T12:49:34.573Z,29.70
2023-02-16T12:58:31.432Z,27.60
2023-02-16T13:07:06.615Z,24.00
2023-02-16T13:11:15.851Z,24.70
2023-02-16T13:15:28.223Z,30.40
2023-02-16T13:29:03.284Z,27.30
2023-02-16T13:33:14.598Z,28.50
2023-02-16T13:37:31.981Z,22.40
2023-02-16T13:41:57.678Z,23.90
2023-02-16T13:46:15.177Z,24.60
2023-02-16T13:55:24.159Z,22.80
2023-02-16T13:59:55.967Z,26.80
2023-02-16T14:04:40.246Z,29.00
2023-02-16T14:09:09.792Z,24.30
2023-02-16T14:13:15.085Z,26.30
2023-02-16T14:21:45.119Z,28.60
2023-02-16T14:25:51.240Z,26.90
2023-02-16T14:30:07.335Z,25.30
2023-02-16T14:34:19.209Z,27.90
2023-02-16T14:42:31.660Z,29.10
2023-02-16T14:46:48.382Z,32.50
2023-02-16T14:51:08.994Z,26.50
2023-02-16T14:55:37.864Z,26.20
2023-02-16T14:59:46.356Z,28.40
2023-02-16T15:03:52.285Z,31.00
2023-02-16T15:08:09.241Z,23.00
2023-02-16T15:12:50.925Z,27.20
2023-02-16T15:17:06.926Z,30.40
2023-02-16T15:21:29.932Z,28.50
2023-02-16T15:25:36.308Z,28.60
2023-02-16T15:29:41.676Z,28.30
2023-02-16T15:33:54.525Z,26.40
2023-02-16T15:38:25.974Z,27.10
2023-02-16T15:42:34.194Z,28.60
2023-02-16T15:46:41.342Z,29.90
2023-02-16T15:50:46.820Z,29.10
2023-02-16T15:54:52.146Z,29.30
2023-02-16T15:58:58.372Z,38.70
2023-02-16T16:03:05.689Z,34.90
2023-02-16T16:07:14.848Z,35.00
2023-02-16T16:11:20.181Z,32.30
2023-02-16T16:15:26.398Z,31.40
2023-02-16T16:19:34.903Z,32.70
2023-02-16T16:23:40.473Z,28.10
2023-02-16T16:27:48.824Z,36.60
2023-02-16T16:31:55.217Z,32.70
2023-02-16T16:36:11.186Z,41.80
2023-02-16T16:40:23.623Z,36.10
2023-02-16T16:44:33.114Z,31.40
2023-02-16T16:48:39.411Z,36.80
2023-02-16T16:52:45.518Z,34.80
2023-02-16T16:56:51.209Z,39.50
2023-02-16T17:00:56.469Z,39.10
2023-02-16T17:05:01.734Z,36.90
2023-02-16T17:09:07.058Z,37.70
2023-02-16T17:13:15.349Z,32.10
2023-02-16T17:17:20.625Z,35.80
2023-02-16T17:21:25.853Z,32.90
2023-02-16T17:25:31.088Z,38.50
2023-02-16T17:29:36.344Z,34.20
2023-02-16T17:33:41.698Z,41.70
2023-02-16T17:37:47.019Z,36.30
2023-02-16T17:41:52.343Z,42.30
2023-02-16T17:45:59.678Z,43.60
2023-02-16T17:50:05.302Z,40.70
2023-02-16T17:54:10.499Z,37.80
2023-02-16T17:58:16.277Z,36.10
2023-02-16T18:02:21.854Z,37.10
2023-02-16T18:06:29.126Z,35.50
2023-02-16T18:10:36.190Z,38.00
2023-02-16T18:14:41.813Z,42.90
2023-02-16T18:18:47.000Z,38.60
2023-02-16T18:22:52.216Z,35.70
2023-02-16T18:26:57.440Z,32.50
2023-02-16T18:31:03.071Z,37.30
2023-02-16T18:35:09.077Z,21.20
2023-02-16T18:43:18.024Z,35.20
2023-02-16T18:47:23.500Z,34.80
2023-02-16T18:51:31.896Z,32.80
2023-02-16T18:55:37.149Z,34.20
2023-02-16T18:59:42.408Z,36.10
2023-02-16T19:03:47.650Z,35.40
2023-02-16T19:07:53.054Z,36.20
2023-02-16T19:11:58.323Z,37.40
2023-02-16T19:16:04.114Z,33.50
2023-02-16T19:24:13.487Z,38.70
2023-02-16T19:28:18.730Z,42.10
2023-02-16T19:32:23.965Z,39.90
2023-02-16T19:36:32.131Z,38.70
2023-02-16T19:40:37.336Z,41.10
2023-02-16T19:44:42.721Z,41.10
2023-02-16T19:48:47.985Z,37.30
2023-02-16T19:52:53.172Z,37.50
2023-02-16T19:56:58.450Z,45.20
2023-02-16T20:01:08.182Z,42.70
2023-02-16T20:05:13.688Z,40.70
2023-02-16T20:09:18.931Z,43.40
2023-02-16T20:13:24.192Z,38.10
2023-02-16T20:17:29.440Z,39.30
2023-02-16T20:21:34.847Z,35.30
2023-02-16T20:25:41.374Z,37.20
2023-02-16T20:29:46.598Z,41.60
2023-02-16T20:33:52.239Z,48.50
2023-02-16T20:37:57.508Z,40.80
2023-02-16T20:42:02.723Z,38.00
2023-02-16T20:46:08.573Z,42.80
2023-02-16T20:50:14.025Z,40.70
2023-02-16T20:54:19.348Z,43.70
2023-02-16T20:58:24.614Z,41.10
2023-02-16T21:02:29.997Z,36.10
2023-02-16T21:06:35.744Z,42.80
2023-02-16T21:10:41.013Z,33.40
2023-02-16T21:14:46.269Z,36.50
2023-02-16T21:18:51.937Z,40.40
2023-02-16T21:22:57.231Z,29.70
2023-02-16T21:27:02.469Z,39.40
2023-02-16T21:31:09.858Z,38.60
2023-02-16T21:35:15.575Z,38.80
2023-02-16T21:39:40.831Z,36.50
2023-02-16T21:43:46.043Z,39.80
2023-02-16T21:48:08.732Z,39.40
2023-02-16T21:52:13.958Z,33.50
2023-02-16T21:56:39.044Z,33.80
2023-02-16T22:00:44.995Z,41.90
2023-02-16T22:08:53.922Z,36.50
2023-02-16T22:12:59.278Z,45.10
2023-02-16T22:17:06.650Z,45.80
2023-02-16T22:21:12.213Z,49.80
2023-02-16T22:25:17.539Z,44.50
2023-02-16T22:29:22.796Z,40.50
2023-02-16T22:33:28.065Z,29.60
2023-02-16T22:37:34.510Z,39.60
2023-02-16T22:41:39.997Z,34.00
2023-02-16T22:45:45.274Z,43.70
2023-02-16T22:49:50.614Z,44.70
2023-02-16T22:53:55.887Z,45.70
2023-02-16T22:58:01.124Z,51.20
2023-02-16T23:02:06.367Z,43.80
2023-02-16T23:06:16.130Z,40.20
2023-02-16T23:10:21.354Z,46.00
2023-02-16T23:14:28.394Z,45.70
2023-02-16T23:18:34.437Z,36.50
2023-02-16T23:22:39.893Z,34.70
2023-02-16T23:26:45.164Z,43.10
2023-02-16T23:30:50.477Z,35.30
2023-02-16T23:34:55.971Z,44.20
2023-02-16T23:39:01.762Z,44.40
2023-02-16T23:43:07.195Z,41.40
2023-02-16T23:47:12.427Z,45.80
2023-02-16T23:51:17.647Z,38.50
2023-02-16T23:55:22.987Z,36.20
2023-02-16T23:59:28.218Z,37.40
